Time;durP1;ratioP1;P1;durP2;ratioP2;P2;SDS_P1;SDS_P2;PMS_P1;PMS_P2;Temp;Humidity;BMP_temperature;BMP_pressure;BME280_temperature;BME280_humidity;BME280_pressure;Samples;Min_cycle;Max_cycle;Signal;HPM_P1;HPM_P2
2022/10/08 00:01:31;;;;;;;6.18;2.10;;;;;;;11.91;100.00;101561.44;5091385;28;20024;-64
2022/10/08 00:03:56;;;;;;;11.07;2.33;;;;;;;11.88;100.00;101548.34;5090924;28;20024;-64
2022/10/08 00:06:30;;;;;;;7.72;2.40;;;;;;;11.88;100.00;101558.72;5067139;28;20267;-64
2022/10/08 00:09:01;;;;;;;6.50;2.03;;;;;;;11.87;100.00;101546.59;5066942;28;20028;-64
2022/10/08 00:11:31;;;;;;;9.85;2.53;;;;;;;11.87;100.00;101556.97;5073665;28;20016;-64
2022/10/08 00:13:57;;;;;;;7.80;2.38;;;;;;;11.85;100.00;101543.03;5069493;28;20028;-64
2022/10/08 00:16:36;;;;;;;10.80;2.67;;;;;;;11.83;100.00;101549.88;5069958;28;20013;-64
2022/10/08 00:19:05;;;;;;;15.68;2.72;;;;;;;11.83;100.00;101555.06;5066183;28;20025;-63
2022/10/08 00:21:34;;;;;;;10.82;2.33;;;;;;;11.84;100.00;101562.03;5073773;28;20072;-64
2022/10/08 00:24:01;;;;;;;9.77;2.45;;;;;;;11.83;100.00;101549.88;5070968;28;20031;-64
2022/10/08 00:26:29;;;;;;;6.25;2.28;;;;;;;11.84;100.00;101551.63;5072476;28;20032;-64
2022/10/08 00:28:57;;;;;;;7.50;2.55;;;;;;;11.87;100.00;101556.97;5071826;28;20032;-64
2022/10/08 00:31:26;;;;;;;5.97;2.17;;;;;;;11.89;100.00;101550.13;5070452;28;20383;-64
2022/10/08 00:33:54;;;;;;;7.03;2.40;;;;;;;11.89;100.00;101550.13;5075183;28;20042;-64
2022/10/08 00:36:20;;;;;;;9.50;2.78;;;;;;;11.89;100.00;101548.41;5070453;28;20214;-63
2022/10/08 00:38:46;;;;;;;7.43;2.83;;;;;;;11.92;100.00;101549.34;5068686;28;20024;-64
2022/10/08 00:41:24;;;;;;;11.75;2.40;;;;;;;11.94;100.00;101543.41;5077590;28;20024;-64
2022/10/08 00:43:53;;;;;;;8.48;2.00;;;;;;;11.94;100.00;101545.09;5090027;28;20024;-63
2022/10/08 00:46:27;;;;;;;6.53;2.15;;;;;;;11.94;100.00;101540.78;5090338;28;20186;-64
2022/10/08 00:49:13;;;;;;;7.80;2.30;;;;;;;11.95;100.00;101550.34;5089679;28;20074;-64
2022/10/08 00:51:43;;;;;;;6.90;2.50;;;;;;;11.95;100.00;101550.34;5089831;28;20351;-63
2022/10/08 00:54:09;;;;;;;8.57;1.95;;;;;;;11.96;100.00;101551.25;5089269;28;20098;-64
2022/10/08 00:56:37;;;;;;;14.40;3.83;;;;;;;11.97;100.00;101548.69;5090054;28;20059;-64
2022/10/08 00:59:03;;;;;;;8.82;2.40;;;;;;;11.98;100.00;101558.25;5089874;28;20120;-64
2022/10/08 01:01:29;;;;;;;7.28;2.00;;;;;;;12.00;100.00;101550.50;5089900;28;20020;-64
2022/10/08 01:03:56;;;;;;;11.73;2.70;;;;;;;12.01;100.00;101555.78;5089388;28;20050;-64
2022/10/08 01:06:26;;;;;;;7.43;2.08;;;;;;;12.03;100.00;101558.44;5089737;28;20024;-64
2022/10/08 01:09:08;;;;;;;11.20;2.55;;;;;;;12.04;100.00;101561.91;5090131;28;20490;-64
2022/10/08 01:11:47;;;;;;;7.55;1.92;;;;;;;12.04;100.00;101567.09;5090008;28;20012;-64
2022/10/08 01:14:28;;;;;;;7.68;2.50;;;;;;;12.05;100.00;101581.88;5089925;28;20443;-64
2022/10/08 01:17:02;;;;;;;8.73;1.83;;;;;;;12.06;100.00;101578.44;5089623;28;20031;-64
2022/10/08 01:19:56;;;;;;;11.13;2.58;;;;;;;12.07;100.00;101590.59;5089513;28;20059;-64
2022/10/08 01:22:49;;;;;;;7.03;2.15;;;;;;;12.07;100.00;101599.25;5089548;28;20024;-64
2022/10/08 01:25:52;;;;;;;8.30;2.17;;;;;;;12.09;100.00;101596.72;5089864;28;20546;-64
2022/10/08 01:28:27;;;;;;;6.95;2.30;;;;;;;12.06;100.00;101591.41;5072931;28;20081;-63
2022/10/08 01:31:11;;;;;;;9.38;2.78;;;;;;;12.03;100.00;101593.91;5089296;28;20040;-64
2022/10/08 01:33:46;;;;;;;11.27;3.03;;;;;;;11.96;100.00;101588.47;5089643;28;20474;-63
2022/10/08 01:36:16;;;;;;;9.85;3.63;;;;;;;11.92;100.00;101578.81;5089551;28;20034;-63
2022/10/08 01:38:49;;;;;;;6.85;2.30;;;;;;;11.89;100.00;101579.56;5088579;28;20024;-64
2022/10/08 01:41:16;;;;;;;7.85;2.90;;;;;;;11.85;100.00;101574.19;5089006;28;20298;-64
2022/10/08 01:43:48;;;;;;;7.90;3.03;;;;;;;11.80;100.00;101584.38;5089071;28;20459;-64
2022/10/08 01:46:16;;;;;;;;;;;;;;;11.78;100.00;101583.47;5089633;28;20084;-64
2022/10/08 01:48:43;;;;;;;9.40;2.78;;;;;;;11.76;100.00;101583.38;5088477;28;20011;-64
2022/10/08 01:51:51;;;;;;;8.93;2.92;;;;;;;11.72;100.00;101584.13;5087484;28;20563;-63
2022/10/08 01:54:19;;;;;;;7.03;2.40;;;;;;;11.70;100.00;101583.16;5045088;28;20067;-64
2022/10/08 01:56:46;;;;;;;6.53;2.10;;;;;;;11.64;100.00;101585.50;5082114;28;20039;-63
2022/10/08 01:59:47;;;;;;;5.28;2.03;;;;;;;11.60;100.00;101594.00;5087948;28;20523;-64
2022/10/08 02:02:18;;;;;;;5.97;2.53;;;;;;;11.55;100.00;101591.22;5080093;28;20158;-63
2022/10/08 02:04:44;;;;;;;10.55;3.50;;;;;;;11.52;100.00;101599.78;5088231;28;20023;-64
2022/10/08 02:07:15;;;;;;;6.97;2.28;;;;;;;11.47;100.00;101603.91;5088325;28;20422;-64
2022/10/08 02:09:50;;;;;;;5.22;2.35;;;;;;;11.45;100.00;101607.25;5086017;28;20022;-63
2022/10/08 02:12:15;;;;;;;10.48;2.50;;;;;;;11.38;100.00;101601.81;5087737;28;20047;-63
2022/10/08 02:14:45;;;;;;;10.52;2.53;;;;;;;11.35;100.00;101606.00;5087793;28;20023;-64
2022/10/08 02:17:23;;;;;;;9.23;2.20;;;;;;;11.34;100.00;101605.09;5088159;28;20051;-63
2022/10/08 02:20:13;;;;;;;6.78;2.22;;;;;;;11.30;100.00;101600.59;5087614;28;20059;-64
2022/10/08 02:22:54;;;;;;;6.13;2.05;;;;;;;11.24;100.00;101596.03;5086991;28;20036;-63
2022/10/08 02:25:27;;;;;;;7.13;1.90;;;;;;;11.21;100.00;101601.09;5088308;28;20430;-64
2022/10/08 02:28:26;;;;;;;8.55;2.30;;;;;;;11.16;100.00;101602.63;5087309;28;20067;-64
2022/10/08 02:31:03;;;;;;;5.68;1.90;;;;;;;11.10;100.00;101592.88;5087440;28;20044;-64
2022/10/08 02:33:36;;;;;;;6.38;2.10;;;;;;;11.02;100.00;101599.47;5087601;28;20536;-64
2022/10/08 02:36:05;;;;;;;9.38;2.40;;;;;;;11.02;100.00;101599.47;5086934;28;20035;-64
2022/10/08 02:38:35;;;;;;;6.93;1.77;;;;;;;11.04;100.00;101605.59;5087512;28;20015;-64
2022/10/08 02:41:03;;;;;;;6.47;1.73;;;;;;;11.01;100.00;101603.75;5087094;28;20026;-64
2022/10/08 02:43:32;;;;;;;5.93;2.33;;;;;;;10.97;100.00;101599.28;5087121;28;20020;-64
2022/10/08 02:46:08;;;;;;;4.45;1.58;;;;;;;10.91;100.00;101596.41;5086892;28;20495;-63
2022/10/08 02:48:35;;;;;;;4.88;1.80;;;;;;;10.89;100.00;101603.22;5087360;28;20024;-64
2022/10/08 02:51:05;;;;;;;7.00;1.75;;;;;;;10.87;100.00;101594.50;5087242;28;20103;-63
2022/10/08 02:53:35;;;;;;;6.57;1.95;;;;;;;10.83;100.00;101595.19;5087702;28;20483;-64
2022/10/08 02:56:25;;;;;;;4.03;1.35;;;;;;;10.81;100.00;101600.31;5087263;28;20027;-63
2022/10/08 02:58:50;;;;;;;5.63;1.85;;;;;;;10.79;100.00;101602.81;5087445;28;20020;-64
2022/10/08 03:01:30;;;;;;;6.22;1.67;;;;;;;10.75;100.00;101600.94;5088030;28;20580;-64
2022/10/08 03:04:03;;;;;;;5.60;1.55;;;;;;;10.73;100.00;101587.03;5087214;28;20028;-63
2022/10/08 03:06:30;;;;;;;8.32;1.77;;;;;;;10.74;100.00;101591.38;5087496;28;20044;-63
2022/10/08 03:08:58;;;;;;;5.30;1.88;;;;;;;10.71;100.00;101599.03;5087639;28;20062;-63
2022/10/08 03:11:24;;;;;;;5.53;1.90;;;;;;;10.68;100.00;101596.31;5087350;28;20100;-63
2022/10/08 03:13:51;;;;;;;6.03;2.13;;;;;;;10.67;100.00;101602.28;5087571;28;20115;-63
2022/10/08 03:16:22;;;;;;;6.10;1.52;;;;;;;10.66;100.00;101605.72;5087304;28;20028;-63
2022/10/08 03:18:50;;;;;;;7.18;1.90;;;;;;;10.66;100.00;101606.63;5087437;28;20051;-63
2022/10/08 03:21:16;;;;;;;5.32;1.90;;;;;;;10.65;100.00;101601.38;5087518;28;20032;-64
2022/10/08 03:23:42;;;;;;;9.50;2.30;;;;;;;10.67;100.00;101607.47;5087022;28;20300;-63
2022/10/08 03:26:07;;;;;;;5.82;1.95;;;;;;;10.66;100.00;101616.97;5087678;28;20103;-63
2022/10/08 03:28:32;;;;;;;7.00;1.70;;;;;;;10.66;100.00;101606.63;5087354;28;20093;-63
2022/10/08 03:31:02;;;;;;;4.35;1.63;;;;;;;10.67;100.00;101607.47;5087374;28;20810;-63
2022/10/08 03:33:27;;;;;;;9.68;2.10;;;;;;;10.64;100.00;101608.25;5086628;28;20042;-63
2022/10/08 03:35:52;;;;;;;9.20;1.90;;;;;;;10.67;100.00;101620.44;5087713;28;20028;-63
2022/10/08 03:38:17;;;;;;;8.27;2.00;;;;;;;10.67;100.00;101623.03;5087259;28;20024;-63
2022/10/08 03:40:53;;;;;;;5.68;1.73;;;;;;;10.64;100.00;101625.50;5087184;28;20016;-63
2022/10/08 03:43:18;;;;;;;4.85;1.92;;;;;;;10.64;100.00;101628.09;5087208;28;20499;-63
2022/10/08 03:45:53;;;;;;;4.30;2.33;;;;;;;10.61;100.00;101631.44;5087166;28;20024;-63
2022/10/08 03:48:20;;;;;;;5.35;2.03;;;;;;;10.61;100.00;101627.97;5087530;28;20031;-64
2022/10/08 03:50:57;;;;;;;6.90;2.40;;;;;;;10.60;100.00;101632.25;5084120;28;20039;-63
2022/10/08 03:53:24;;;;;;;8.13;3.03;;;;;;;10.54;100.00;101634.56;5076832;28;20024;-63
2022/10/08 03:55:49;;;;;;;6.30;1.90;;;;;;;10.54;100.00;101635.44;5087076;28;20483;-63
2022/10/08 03:58:15;;;;;;;5.53;1.98;;;;;;;10.51;100.00;101635.31;5087216;28;20032;-63
2022/10/08 04:00:40;;;;;;;4.90;2.15;;;;;;;10.51;100.00;101637.00;5087143;28;20020;-63
2022/10/08 04:03:06;;;;;;;7.85;2.38;;;;;;;10.43;100.00;101639.25;5080056;28;20024;-63
2022/10/08 04:05:32;;;;;;;4.63;2.45;;;;;;;10.43;100.00;101634.06;5079714;28;20035;-63
2022/10/08 04:07:57;;;;;;;7.35;2.78;;;;;;;10.37;100.00;101633.75;5087367;28;20454;-63
2022/10/08 04:10:22;;;;;;;8.60;3.35;;;;;;;10.37;100.00;101644.13;5086750;28;20024;-63
2022/10/08 04:12:47;;;;;;;5.68;3.15;;;;;;;10.37;100.00;101644.13;5086835;28;20097;-63
2022/10/08 04:15:13;;;;;;;6.03;2.50;;;;;;;10.36;100.00;101643.22;5089528;28;20055;-63
2022/10/08 04:17:40;;;;;;;4.25;2.67;;;;;;;10.37;100.00;101646.72;5090248;28;20020;-63
2022/10/08 04:20:05;;;;;;;7.35;3.30;;;;;;;10.37;100.00;101655.38;5090685;28;20490;-63
2022/10/08 04:22:31;;;;;;;5.70;2.88;;;;;;;10.36;100.00;101652.72;5090503;28;20028;-63
2022/10/08 04:24:56;;;;;;;8.85;3.13;;;;;;;10.36;100.00;101656.19;5090582;28;20019;-63
2022/10/08 04:27:21;;;;;;;3.30;2.47;;;;;;;10.36;100.00;101656.19;5089727;28;20028;-62
2022/10/08 04:29:46;;;;;;;5.88;3.67;;;;;;;10.35;100.00;101658.72;5090255;28;20145;-63
2022/10/08 04:32:12;;;;;;;8.13;4.40;;;;;;;10.35;100.00;101648.34;5090333;28;20486;-63
2022/10/08 04:34:37;;;;;;;8.60;5.45;;;;;;;10.31;100.00;101661.16;5090662;28;20024;-64
2022/10/08 04:37:02;;;;;;;9.38;7.50;;;;;;;10.30;100.00;101656.81;5090176;28;20078;-63
2022/10/08 04:39:28;;;;;;;11.43;8.35;;;;;;;10.31;100.00;101661.16;5090400;28;20380;-63
2022/10/08 04:41:53;;;;;;;12.43;10.40;;;;;;;10.36;100.00;101670.88;5089562;28;20454;-63
2022/10/08 04:44:18;;;;;;;15.98;11.90;;;;;;;10.37;100.00;101664.84;5089721;28;20480;-63
2022/10/08 04:46:44;;;;;;;15.40;12.48;;;;;;;10.39;100.00;101666.72;5090071;28;20035;-63
2022/10/08 04:49:09;;;;;;;18.95;14.68;;;;;;;10.40;100.00;101680.53;5089914;28;20031;-63
2022/10/08 04:51:34;;;;;;;21.73;16.70;;;;;;;10.42;100.00;101678.91;5089870;28;20020;-63
2022/10/08 04:54:00;;;;;;;24.95;17.65;;;;;;;10.44;100.00;101687.63;5087716;28;20028;-63
2022/10/08 04:56:30;;;;;;;23.13;18.35;;;;;;;10.48;100.00;101686.13;5089365;28;20023;-63
2022/10/08 04:58:58;;;;;;;22.85;18.90;;;;;;;10.51;100.00;101694.91;5089637;28;20606;-63
2022/10/08 05:01:24;;;;;;;25.65;21.25;;;;;;;10.53;100.00;101688.09;5088758;28;20391;-63
2022/10/08 05:03:51;;;;;;;26.70;22.00;;;;;;;10.56;100.00;101702.88;5089540;28;20556;-64
2022/10/08 05:06:18;;;;;;;27.23;22.73;;;;;;;10.59;100.00;101703.06;5089547;28;20466;-63
2022/10/08 05:08:45;;;;;;;31.58;23.90;;;;;;;10.61;100.00;101697.94;5089051;28;20474;-63
2022/10/08 05:11:12;;;;;;;32.58;25.40;;;;;;;10.62;100.00;101707.47;5089822;28;20024;-63
2022/10/08 05:13:38;;;;;;;37.35;27.08;;;;;;;10.62;100.00;101708.38;5089601;28;20020;-64
2022/10/08 05:16:12;;;;;;;38.00;27.95;;;;;;;10.62;100.00;101697.09;5089039;28;20315;-63
2022/10/08 05:18:38;;;;;;;37.45;27.00;;;;;;;10.64;100.00;101700.66;5089340;28;20099;-63
2022/10/08 05:21:09;;;;;;;40.50;27.73;;;;;;;10.63;100.00;101704.94;5088425;28;20063;-63
2022/10/08 05:23:35;;;;;;;41.88;29.25;;;;;;;10.65;100.00;101707.63;5088818;28;20043;-64
2022/10/08 05:26:10;;;;;;;42.17;29.65;;;;;;;10.65;100.00;101705.03;5070921;28;20048;-63
2022/10/08 05:28:35;;;;;;;40.40;29.02;;;;;;;10.64;100.00;101713.63;5060828;28;20060;-63
2022/10/08 05:31:00;;;;;;;41.83;29.27;;;;;;;10.63;100.00;101720.50;5050828;28;20045;-63
2022/10/08 05:33:26;;;;;;;41.13;31.65;;;;;;;10.64;100.00;101717.09;5053919;28;20012;-64
2022/10/08 05:35:52;;;;;;;44.78;32.42;;;;;;;10.65;100.00;101713.69;5048262;28;20170;-63
2022/10/08 05:38:17;;;;;;;48.40;32.53;;;;;;;10.66;100.00;101715.47;5050511;28;20381;-63
2022/10/08 05:40:42;;;;;;;45.50;33.22;;;;;;;10.67;100.00;101726.72;5066556;28;20264;-63
2022/10/08 05:43:07;;;;;;;50.45;33.83;;;;;;;10.66;100.00;101730.13;5056185;28;20036;-63
2022/10/08 05:45:33;;;;;;;46.95;32.08;;;;;;;10.65;100.00;101729.25;5054214;28;20048;-63
2022/10/08 05:47:58;;;;;;;41.28;31.63;;;;;;;10.65;100.00;101738.75;5047777;28;20021;-63
2022/10/08 05:50:23;;;;;;;43.10;32.42;;;;;;;10.63;100.00;101728.28;5048374;28;20389;-64
2022/10/08 05:52:49;;;;;;;42.15;31.10;;;;;;;10.63;100.00;101735.19;5066312;28;20099;-64
2022/10/08 05:55:14;;;;;;;43.40;31.52;;;;;;;10.62;100.00;101738.56;5055272;28;20063;-63
2022/10/08 05:57:39;;;;;;;46.55;32.38;;;;;;;10.61;100.00;101742.91;5050628;28;20016;-63
2022/10/08 06:00:05;;;;;;;46.40;33.78;;;;;;;10.61;100.00;101758.44;5048805;28;20027;-63
2022/10/08 06:02:30;;;;;;;48.67;32.70;;;;;;;10.60;100.00;101755.75;5049251;28;20017;-63
2022/10/08 06:04:56;;;;;;;48.70;33.08;;;;;;;10.62;100.00;101761.91;5049033;28;20029;-64
2022/10/08 06:07:21;;;;;;;51.38;34.08;;;;;;;10.62;100.00;101764.50;5059599;28;20400;-63
2022/10/08 06:09:46;;;;;;;47.75;32.50;;;;;;;10.59;100.00;101762.66;5050301;28;20078;-64
2022/10/08 06:12:12;;;;;;;46.90;33.45;;;;;;;10.62;100.00;101772.28;5057455;28;20134;-63
2022/10/08 06:14:38;;;;;;;45.17;32.58;;;;;;;10.64;100.00;101775.81;5049054;28;20105;-64
2022/10/08 06:17:03;;;;;;;47.72;31.25;;;;;;;10.62;100.00;101774.88;5048424;28;20021;-63
2022/10/08 06:19:28;;;;;;;45.63;30.73;;;;;;;10.62;100.00;101780.03;5051916;28;20013;-63
2022/10/08 06:21:54;;;;;;;47.83;32.33;;;;;;;10.60;100.00;101786.84;5051690;28;20017;-63
2022/10/08 06:24:20;;;;;;;45.00;32.45;;;;;;;10.59;100.00;101790.28;5049941;28;20493;-63
2022/10/08 06:26:45;;;;;;;49.88;33.65;;;;;;;10.57;100.00;101788.50;5049582;28;20090;-64
2022/10/08 06:29:16;;;;;;;52.92;32.78;;;;;;;10.51;100.00;101796.00;5055849;28;20483;-63
2022/10/08 06:31:42;;;;;;;53.17;34.92;;;;;;;10.48;100.00;101793.25;5052446;28;20469;-63
2022/10/08 06:34:07;;;;;;;51.45;33.53;;;;;;;10.49;100.00;101804.53;5049661;28;20107;-63
2022/10/08 06:36:36;;;;;;;47.97;32.50;;;;;;;10.48;100.00;101798.44;5050324;28;20056;-63
2022/10/08 06:39:04;;;;;;;50.00;33.03;;;;;;;10.49;100.00;101807.97;5060161;28;20377;-63
2022/10/08 06:41:33;;;;;;;50.72;32.78;;;;;;;10.54;100.00;101811.66;5061256;28;20717;-63
2022/10/08 06:43:59;;;;;;;55.08;33.47;;;;;;;10.50;100.00;101817.53;5064222;28;20050;-63
2022/10/08 06:46:24;;;;;;;47.08;32.25;;;;;;;10.53;100.00;101827.16;5064140;28;20048;-63
2022/10/08 06:48:49;;;;;;;49.33;33.00;;;;;;;10.56;100.00;101832.47;5055833;28;20017;-63
2022/10/08 06:51:17;;;;;;;49.20;33.28;;;;;;;10.60;100.00;101834.41;5059375;28;20090;-63
2022/10/08 06:53:43;;;;;;;50.53;32.03;;;;;;;10.63;100.00;101831.09;5057571;28;20051;-63
2022/10/08 06:56:13;;;;;;;50.63;33.38;;;;;;;10.65;100.00;101832.06;5064667;28;20091;-64
2022/10/08 06:58:39;;;;;;;46.60;30.83;;;;;;;10.70;100.00;101848.72;5067791;28;20108;-63
2022/10/08 07:01:13;;;;;;;47.13;31.40;;;;;;;10.71;100.00;101853.06;5067076;28;20024;-63
2022/10/08 07:03:38;;;;;;;46.42;32.25;;;;;;;10.78;100.00;101856.84;5060188;28;20044;-63
2022/10/08 07:06:11;;;;;;;44.90;30.55;;;;;;;10.81;100.00;101859.59;5063526;28;20436;-63
2022/10/08 07:08:37;;;;;;;40.67;29.67;;;;;;;10.85;100.00;101868.41;5067099;28;20484;-63
2022/10/08 07:11:11;;;;;;;37.95;28.33;;;;;;;10.87;100.00;101874.53;5067679;28;20027;-63
2022/10/08 07:13:37;;;;;;;43.78;28.27;;;;;;;10.90;100.00;101879.88;5067942;28;20393;-63
2022/10/08 07:16:10;;;;;;;39.25;27.05;;;;;;;10.96;100.00;101885.34;5049170;28;20697;-63
2022/10/08 07:18:37;;;;;;;39.35;25.58;;;;;;;11.00;100.00;101886.38;5054979;28;20035;-63
2022/10/08 07:21:03;;;;;;;33.70;24.10;;;;;;;11.04;100.00;101903.88;5071556;28;20051;-63
2022/10/08 07:23:29;;;;;;;30.27;22.90;;;;;;;11.07;100.00;101897.94;5067765;28;20047;-63
2022/10/08 07:26:00;;;;;;;35.05;24.00;;;;;;;11.12;100.00;101904.22;5067536;28;20028;-63
2022/10/08 07:28:27;;;;;;;32.00;22.02;;;;;;;11.16;100.00;101898.38;5067273;28;20427;-64
2022/10/08 07:30:53;;;;;;;30.00;21.23;;;;;;;11.21;100.00;101903.75;5066603;28;20024;-63
2022/10/08 07:33:18;;;;;;;27.55;19.70;;;;;;;11.26;100.00;101900.56;5068513;28;20031;-63
2022/10/08 07:35:44;;;;;;;29.10;19.30;;;;;;;11.32;100.00;101909.44;5067562;28;20384;-63
2022/10/08 07:38:09;;;;;;;25.25;17.98;;;;;;;11.35;100.00;101910.47;5067357;28;20052;-63
2022/10/08 07:40:34;;;;;;;23.38;18.05;;;;;;;11.38;100.00;101914.94;5070098;28;20032;-63
2022/10/08 07:43:01;;;;;;;23.50;16.55;;;;;;;11.44;100.00;101915.19;5087548;28;20050;-63
2022/10/08 07:45:26;;;;;;;21.83;15.57;;;;;;;11.55;100.00;101917.41;5087247;28;20565;-64
2022/10/08 07:47:52;;;;;;;21.38;15.50;;;;;;;11.62;100.00;101919.47;5088355;28;20024;-64
2022/10/08 07:50:17;;;;;;;17.67;13.77;;;;;;;11.67;100.00;101933.53;5092051;28;20031;-63
2022/10/08 07:52:42;;;;;;;18.70;12.93;;;;;;;11.70;100.00;101931.06;5091274;28;20425;-63
2022/10/08 07:55:07;;;;;;;18.55;12.65;;;;;;;11.70;100.00;101928.47;5090503;28;20115;-64
2022/10/08 07:57:33;;;;;;;16.67;11.73;;;;;;;11.77;100.00;101933.13;5079338;28;20481;-63
2022/10/08 07:59:58;;;;;;;16.10;11.50;;;;;;;12.13;100.00;101928.63;5076212;28;20020;-64
2022/10/08 08:02:23;;;;;;;13.27;10.68;;;;;;;12.85;100.00;101926.34;5053543;28;20021;-63
2022/10/08 08:04:49;;;;;;;12.50;8.63;;;;;;;13.51;100.00;101934.91;5051805;28;20021;-64
2022/10/08 08:07:14;;;;;;;11.52;6.53;;;;;;;14.29;100.00;101947.22;5063355;28;20869;-64
2022/10/08 08:09:39;;;;;;;11.55;5.80;;;;;;;14.77;100.00;101946.19;5069399;28;20087;-64
2022/10/08 08:12:05;;;;;;;11.60;5.95;;;;;;;15.31;100.00;101953.97;5079536;28;20055;-64
2022/10/08 08:14:30;;;;;;;11.52;5.40;;;;;;;15.79;99.46;101945.75;5063072;28;20032;-64
2022/10/08 08:16:55;;;;;;;11.45;4.20;;;;;;;16.06;93.35;101956.09;5057033;28;20024;-63
2022/10/08 08:19:22;;;;;;;8.27;2.90;;;;;;;16.33;88.97;101956.81;5057323;28;20017;-64
2022/10/08 08:21:48;;;;;;;6.55;3.63;;;;;;;16.25;83.90;101959.19;5058349;28;20013;-63
2022/10/08 08:24:14;;;;;;;6.65;2.92;;;;;;;16.22;85.89;101961.75;5069642;28;20110;-64
2022/10/08 08:26:41;;;;;;;8.32;2.83;;;;;;;16.14;87.24;101958.03;5055358;28;20020;-63
2022/10/08 08:29:12;;;;;;;8.10;2.88;;;;;;;16.09;87.19;101965.75;5068693;28;20036;-63
2022/10/08 08:31:39;;;;;;;;;;;;;;;16.06;86.92;101971.78;5070281;28;20017;-63
2022/10/08 08:34:08;;;;;;;6.60;2.28;;;;;;;16.05;87.38;101979.56;5070674;28;19917;-63
2022/10/08 08:36:39;;;;;;;6.68;2.45;;;;;;;15.92;87.40;101978.34;5062940;28;20032;-66
2022/10/08 08:39:06;;;;;;;6.22;2.50;;;;;;;15.85;86.31;101991.22;5069422;28;20473;-62
2022/10/08 08:41:52;;;;;;;6.88;2.60;;;;;;;15.90;88.99;101990.47;5078837;28;20036;-63
2022/10/08 08:44:43;;;;;;;6.25;2.03;;;;;;;16.09;86.78;101991.91;5088488;28;20388;-64
2022/10/08 08:47:26;;;;;;;12.23;3.08;;;;;;;16.29;85.63;101994.16;5087846;28;20036;-64
2022/10/08 08:50:06;;;;;;;5.80;2.55;;;;;;;16.41;84.02;102004.06;5087567;28;20043;-64
2022/10/08 08:52:39;;;;;;;5.18;2.20;;;;;;;16.56;82.28;102008.81;5087831;28;20019;-64
2022/10/08 08:55:14;;;;;;;4.82;2.03;;;;;;;16.70;80.43;102003.94;5088106;28;20107;-64
2022/10/08 08:58:04;;;;;;;7.10;1.90;;;;;;;16.65;77.93;102005.53;5088276;28;20455;-64
2022/10/08 09:00:34;;;;;;;5.28;1.83;;;;;;;16.79;79.32;102001.53;5087884;28;20485;-64
2022/10/08 09:03:10;;;;;;;7.47;1.80;;;;;;;16.81;79.42;102009.44;5088370;28;20201;-63
2022/10/08 09:05:42;;;;;;;6.38;2.08;;;;;;;16.93;75.68;102011.44;5087770;28;20067;-64
2022/10/08 09:08:34;;;;;;;7.80;1.83;;;;;;;16.89;75.78;102012.25;5087327;28;20073;-64
2022/10/08 09:11:02;;;;;;;7.80;1.60;;;;;;;16.78;75.47;102012.84;5084510;28;20032;-63
2022/10/08 09:13:56;;;;;;;7.70;1.65;;;;;;;16.73;76.46;102011.84;5068759;28;20035;-64
2022/10/08 09:16:22;;;;;;;4.50;1.15;;;;;;;16.40;76.35;102031.06;5027796;28;20040;-64
2022/10/08 09:18:50;;;;;;;6.00;1.20;;;;;;;16.18;77.23;102023.53;5059202;28;20468;-64
2022/10/08 09:21:16;;;;;;;7.63;1.52;;;;;;;16.07;77.50;102036.31;5053395;28;20409;-63
2022/10/08 09:23:41;;;;;;;5.20;1.45;;;;;;;15.85;75.98;102038.25;5056767;28;20024;-63
2022/10/08 09:26:07;;;;;;;4.28;1.15;;;;;;;15.65;77.82;102045.50;5068672;28;20035;-63
2022/10/08 09:28:36;;;;;;;7.05;1.27;;;;;;;15.44;78.42;102048.34;5068725;28;20020;-63
2022/10/08 09:31:18;;;;;;;6.03;1.38;;;;;;;15.27;78.81;102046.13;5068761;28;20029;-63
2022/10/08 09:33:45;;;;;;;4.78;1.08;;;;;;;15.15;79.79;102050.94;5060796;28;20024;-63
2022/10/08 09:36:11;;;;;;;7.68;1.30;;;;;;;15.01;79.81;102053.97;5076062;28;20039;-64
2022/10/08 09:38:37;;;;;;;5.70;1.50;;;;;;;14.94;80.36;102063.34;5089324;28;20460;-63
2022/10/08 09:41:15;;;;;;;6.45;0.98;;;;;;;14.88;80.62;102056.19;5088267;28;20422;-63
2022/10/08 09:43:40;;;;;;;7.95;1.52;;;;;;;14.91;80.18;102060.63;5087571;28;20408;-63
2022/10/08 09:46:10;;;;;;;4.55;0.85;;;;;;;14.95;80.99;102059.00;5088499;28;20020;-63
2022/10/08 09:48:36;;;;;;;6.17;1.67;;;;;;;15.04;82.01;102068.88;5089000;28;20034;-63
2022/10/08 09:51:12;;;;;;;4.50;0.88;;;;;;;15.08;80.90;102068.09;5087913;28;20024;-63
2022/10/08 09:53:49;;;;;;;5.50;1.45;;;;;;;15.07;80.43;102075.06;5088769;28;20418;-63
2022/10/08 09:56:26;;;;;;;6.70;1.17;;;;;;;15.06;79.98;102086.34;5088687;28;20031;-64
2022/10/08 09:58:56;;;;;;;3.05;1.00;;;;;;;15.02;81.05;102080.97;5088100;28;20050;-64
2022/10/08 10:01:23;;;;;;;5.72;0.90;;;;;;;14.97;81.00;102083.41;5088648;28;20250;-63
2022/10/08 10:03:52;;;;;;;3.53;0.98;;;;;;;14.94;80.75;102086.81;5088478;28;20032;-63
2022/10/08 10:06:36;;;;;;;5.63;0.90;;;;;;;14.87;80.50;102088.34;5087905;28;20039;-63
2022/10/08 10:09:01;;;;;;;4.05;1.13;;;;;;;14.77;82.24;102091.41;5088596;28;20040;-63
2022/10/08 10:11:33;;;;;;;4.90;0.90;;;;;;;14.66;83.18;102096.25;5088053;28;20038;-63
2022/10/08 10:14:04;;;;;;;3.65;0.90;;;;;;;14.57;81.67;102099.44;5086735;28;20024;-63
2022/10/08 10:16:40;;;;;;;5.38;1.17;;;;;;;14.47;82.34;102092.13;5080319;28;20030;-63
2022/10/08 10:19:13;;;;;;;7.10;1.30;;;;;;;14.44;81.62;102099.84;5068159;28;20035;-63
2022/10/08 10:21:49;;;;;;;3.38;0.98;;;;;;;14.40;83.44;102091.91;5068486;28;20028;-63
2022/10/08 10:25:01;;;;;;;3.28;0.88;;;;;;;14.48;85.48;102099.13;5068006;28;20035;-63
2022/10/08 10:27:33;;;;;;;6.03;1.00;;;;;;;14.66;85.24;102098.88;5051738;28;20029;-63
2022/10/08 10:30:20;;;;;;;4.40;1.20;;;;;;;14.85;83.66;102105.66;5068568;28;20028;-64
2022/10/08 10:32:52;;;;;;;3.65;1.00;;;;;;;14.89;79.03;102112.75;5054082;28;20029;-63
2022/10/08 10:35:26;;;;;;;4.03;0.80;;;;;;;14.88;77.05;102113.59;5060335;28;20431;-63
2022/10/08 10:38:18;;;;;;;3.97;1.33;;;;;;;14.85;76.38;102110.00;5070147;28;20024;-64
2022/10/08 10:40:46;;;;;;;;;;;;;;;14.83;77.72;102107.34;5072639;28;20137;-63
2022/10/08 10:43:17;;;;;;;4.85;1.00;;;;;;;14.81;78.70;102100.22;5088189;28;19974;-63
2022/10/08 10:45:46;;;;;;;;;;;;;;;14.70;77.81;102108.59;5088458;28;20024;-63
2022/10/08 10:48:13;;;;;;;4.10;0.95;;;;;;;14.59;76.62;102113.41;5088374;28;19911;-63
2022/10/08 10:50:57;;;;;;;4.28;0.70;;;;;;;14.46;77.77;102119.94;5087379;28;20111;-63
2022/10/08 10:53:42;;;;;;;6.25;1.13;;;;;;;14.38;79.17;102119.66;5088509;28;20051;-63
2022/10/08 10:56:14;;;;;;;5.10;0.85;;;;;;;14.47;79.94;102120.81;5086472;28;20024;-63
2022/10/08 10:58:50;;;;;;;2.08;0.77;;;;;;;14.71;80.27;102117.31;5088476;28;20528;-63
2022/10/08 11:01:34;;;;;;;5.82;1.40;;;;;;;14.95;78.72;102113.81;5087440;28;20514;-64
2022/10/08 11:04:11;;;;;;;6.00;1.23;;;;;;;15.18;74.67;102119.78;5088393;28;20016;-63
2022/10/08 11:06:42;;;;;;;3.80;1.20;;;;;;;15.41;71.40;102116.16;5087679;28;20462;-63
2022/10/08 11:09:07;;;;;;;2.85;0.80;;;;;;;15.65;72.71;102123.03;5087914;28;20054;-64
2022/10/08 11:11:39;;;;;;;4.65;0.90;;;;;;;15.84;69.56;102121.84;5087732;28;20016;-63
2022/10/08 11:14:12;;;;;;;2.40;0.65;;;;;;;15.99;64.93;102116.22;5087155;28;20475;-63
2022/10/08 11:16:50;;;;;;;2.63;0.60;;;;;;;16.11;65.19;102122.66;5086012;28;20027;-63
2022/10/08 11:19:32;;;;;;;3.05;0.70;;;;;;;16.20;65.07;102120.31;5087524;28;20016;-63
2022/10/08 11:22:18;;;;;;;5.80;1.20;;;;;;;16.27;61.07;102111.81;5087110;28;20028;-63
2022/10/08 11:24:46;;;;;;;4.60;1.13;;;;;;;16.45;65.03;102115.78;5091449;28;20066;-63
2022/10/08 11:27:31;;;;;;;2.92;0.90;;;;;;;16.53;63.45;102127.34;5083499;28;20294;-64
2022/10/08 11:30:03;;;;;;;2.00;0.70;;;;;;;16.64;63.66;102126.78;5088786;28;20515;-64